Gordonsville, Virginia
Current Conditions -  °F | °C
As of 7:15 AM on Friday 28 Nov 2014 (Local Time) from KGVE Reporting Station
Overcast Overcast  
Wind Chill: 28°   Ceiling: 4800
Heat Index: 33°   Visibility: 10mi
Dew Point: 20°   Wind: 5mph
Humidity: 60%   Direction: 300°WNW
Pressure: 30.3"   Gusts: NA
Location:  38.14°N, 78.19°W
Report Text: KGVE 281215Z AUTO 30004KT 10SM OVC048 00/M06 A3030 RMK AO1 T00041065
Loading
Personal Weather Stations






























Interactive Weather Map New forecast layout! Learn more

10-Day Weather Forecast

Advertisements
Track Severe Weather on mobile